aviador You're here:

TIST Decoded Metar

ST. THOMAS in VIRGIN ISL.
Report Time2017-06-25 18:53:00
UTC Time2017-06-25 19:12:08
Flight Rules vfr VFR
Wind100° at 13 kt
W.Decomp.*RWY 10: 12.7 kt HW 2.9 kt RCW
W.Rank100° ranks 3
Current wind is above 100° avg. (8.9)
Visibility9999 m
Phenomena:N/A
Clouds:Broken 032 Hf
Expected CloudBase > 3,600 ft AGL from Temp-Dew spread
Ceiling3,200 ft
Temp33°C (ISA +18)
Dew Point24°C (59% RH)
Heat Index39.2°C
QNH1017 hPa
Density Alt2,336 ft
Elevation23 ft
Report Wrong Elevation
Raw Report
TIST 251853Z 10013KT 10SM BKN032 33/24 A3003=

Extra information for TIST:More info

Metar Taf Metar & Taf Last 4 Metars F.Rules Stats Wind Profile Meteogram Temp Stats Airport Information Weather charts Add Link Nearby VenuesMetar ALERT Operation Metar Decoded Social comments